sensor_id;sensor_type;location;lat;lon;timestamp;pressure;altitude;pressure_sealevel;temperature;humidity
40117;BME280;25829;50.228;18.936;2023-05-23T00:01:54;98307.69;;;12.11;59.40
40117;BME280;25829;50.228;18.936;2023-05-23T00:04:57;98295.22;;;12.00;59.62
40117;BME280;25829;50.228;18.936;2023-05-23T00:08:00;98292.78;;;11.98;59.69
40117;BME280;25829;50.228;18.936;2023-05-23T00:11:00;98287.50;;;11.98;59.68
40117;BME280;25829;50.228;18.936;2023-05-23T00:14:01;98295.00;;;12.02;59.92
40117;BME280;25829;50.228;18.936;2023-05-23T00:17:02;98283.00;;;11.99;59.67
40117;BME280;25829;50.228;18.936;2023-05-23T00:20:03;98287.41;;;11.87;60.10
40117;BME280;25829;50.228;18.936;2023-05-23T00:23:04;98283.22;;;11.79;60.13
40117;BME280;25829;50.228;18.936;2023-05-23T00:26:05;98284.88;;;11.73;60.52
40117;BME280;25829;50.228;18.936;2023-05-23T00:29:06;98282.09;;;11.68;60.45
40117;BME280;25829;50.228;18.936;2023-05-23T00:32:06;98282.53;;;11.65;60.53
40117;BME280;25829;50.228;18.936;2023-05-23T00:35:07;98281.00;;;11.58;60.91
40117;BME280;25829;50.228;18.936;2023-05-23T00:38:08;98291.78;;;11.56;61.04
40117;BME280;25829;50.228;18.936;2023-05-23T00:41:11;98281.88;;;11.51;61.18
40117;BME280;25829;50.228;18.936;2023-05-23T00:44:12;98293.53;;;11.44;61.34
40117;BME280;25829;50.228;18.936;2023-05-23T00:47:13;98286.50;;;11.31;61.65
40117;BME280;25829;50.228;18.936;2023-05-23T00:50:14;98286.94;;;11.28;61.74
40117;BME280;25829;50.228;18.936;2023-05-23T00:53:16;98290.84;;;11.25;61.52
40117;BME280;25829;50.228;18.936;2023-05-23T00:56:17;98283.19;;;11.17;61.85
40117;BME280;25829;50.228;18.936;2023-05-23T00:59:18;98284.03;;;11.11;61.77
40117;BME280;25829;50.228;18.936;2023-05-23T01:02:31;98286.50;;;11.06;62.16
40117;BME280;25829;50.228;18.936;2023-05-23T01:05:49;98283.53;;;10.96;62.23
40117;BME280;25829;50.228;18.936;2023-05-23T01:08:58;98291.72;;;10.88;62.30
40117;BME280;25829;50.228;18.936;2023-05-23T01:12:19;98287.31;;;10.81;62.78
40117;BME280;25829;50.228;18.936;2023-05-23T01:15:41;98288.16;;;10.75;62.54
40117;BME280;25829;50.228;18.936;2023-05-23T01:32:13;98288.94;;;10.38;63.55
40117;BME280;25829;50.228;18.936;2023-05-23T01:35:26;98280.44;;;10.35;63.74
40117;BME280;25829;50.228;18.936;2023-05-23T01:38:31;98279.63;;;10.35;63.86
40117;BME280;25829;50.228;18.936;2023-05-23T01:41:35;98275.78;;;10.31;63.65
40117;BME280;25829;50.228;18.936;2023-05-23T01:44:37;98272.78;;;10.21;63.75
40117;BME280;25829;50.228;18.936;2023-05-23T01:48:00;98270.78;;;10.16;64.07
40117;BME280;25829;50.228;18.936;2023-05-23T01:51:02;98273.81;;;10.13;63.89
40117;BME280;25829;50.228;18.936;2023-05-23T01:54:03;98285.59;;;10.10;63.75
40117;BME280;25829;50.228;18.936;2023-05-23T01:57:04;98278.72;;;10.03;64.09
40117;BME280;25829;50.228;18.936;2023-05-23T02:00:06;98272.25;;;9.99;63.94
40117;BME280;25829;50.228;18.936;2023-05-23T02:03:19;98278.75;;;9.96;64.26
40117;BME280;25829;50.228;18.936;2023-05-23T02:06:20;98281.38;;;9.96;64.24
40117;BME280;25829;50.228;18.936;2023-05-23T02:09:21;98279.13;;;10.00;64.64
40117;BME280;25829;50.228;18.936;2023-05-23T02:12:41;98278.72;;;10.03;64.10
40117;BME280;25829;50.228;18.936;2023-05-23T02:15:42;98277.53;;;9.99;63.98
40117;BME280;25829;50.228;18.936;2023-05-23T02:18:43;98268.63;;;9.93;64.53
40117;BME280;25829;50.228;18.936;2023-05-23T02:21:56;98265.59;;;9.90;64.38
40117;BME280;25829;50.228;18.936;2023-05-23T02:25:01;98264.22;;;9.80;64.46
40117;BME280;25829;50.228;18.936;2023-05-23T02:28:02;98259.38;;;9.64;64.67
40117;BME280;25829;50.228;18.936;2023-05-23T02:31:11;98266.28;;;9.58;64.85
40117;BME280;25829;50.228;18.936;2023-05-23T02:34:15;98258.38;;;9.52;64.69
40117;BME280;25829;50.228;18.936;2023-05-23T02:37:19;98263.88;;;9.37;65.34
40117;BME280;25829;50.228;18.936;2023-05-23T02:40:23;98260.44;;;9.36;65.40
40117;BME280;25829;50.228;18.936;2023-05-23T02:43:23;98262.47;;;9.34;65.63
40117;BME280;25829;50.228;18.936;2023-05-23T02:46:24;98261.25;;;9.37;65.10
40117;BME280;25829;50.228;18.936;2023-05-23T02:49:25;98261.84;;;9.32;65.29
40117;BME280;25829;50.228;18.936;2023-05-23T02:52:26;98259.41;;;9.31;65.46
40117;BME280;25829;50.228;18.936;2023-05-23T02:55:27;98256.19;;;9.29;65.48
40117;BME280;25829;50.228;18.936;2023-05-23T02:58:28;98268.31;;;9.30;65.57
40117;BME280;25829;50.228;18.936;2023-05-23T03:01:29;98254.34;;;9.29;65.61
40117;BME280;25829;50.228;18.936;2023-05-23T03:04:30;98265.28;;;9.33;65.54
40117;BME280;25829;50.228;18.936;2023-05-23T03:07:30;98264.50;;;9.39;65.87
40117;BME280;25829;50.228;18.936;2023-05-23T03:10:33;98261.66;;;9.40;65.79
40117;BME280;25829;50.228;18.936;2023-05-23T03:13:34;98257.81;;;9.43;65.54
40117;BME280;25829;50.228;18.936;2023-05-23T03:16:35;98253.97;;;9.39;65.58
40117;BME280;25829;50.228;18.936;2023-05-23T03:19:39;98251.94;;;9.41;65.59
40117;BME280;25829;50.228;18.936;2023-05-23T03:22:43;98251.34;;;9.46;65.60
40117;BME280;25829;50.228;18.936;2023-05-23T03:25:44;98246.66;;;9.48;65.69
40117;BME280;25829;50.228;18.936;2023-05-23T03:28:45;98247.28;;;9.50;65.87
40117;BME280;25829;50.228;18.936;2023-05-23T03:31:46;98243.22;;;9.47;65.71
40117;BME280;25829;50.228;18.936;2023-05-23T03:34:47;98244.88;;;9.42;65.82
40117;BME280;25829;50.228;18.936;2023-05-23T03:37:51;98244.66;;;9.43;66.15
40117;BME280;25829;50.228;18.936;2023-05-23T03:40:52;98249.91;;;9.43;65.59
40117;BME280;25829;50.228;18.936;2023-05-23T03:43:53;98243.84;;;9.43;65.76
40117;BME280;25829;50.228;18.936;2023-05-23T03:46:55;98244.25;;;9.46;65.97
40117;BME280;25829;50.228;18.936;2023-05-23T03:49:56;98239.38;;;9.50;66.40
40117;BME280;25829;50.228;18.936;2023-05-23T03:53:01;98237.94;;;9.54;66.39
40117;BME280;25829;50.228;18.936;2023-05-23T03:56:08;98234.91;;;9.57;66.38
40117;BME280;25829;50.228;18.936;2023-05-23T03:59:08;98241.78;;;9.51;66.76
40117;BME280;25829;50.228;18.936;2023-05-23T04:02:10;98233.31;;;9.49;66.59
40117;BME280;25829;50.228;18.936;2023-05-23T04:05:12;98238.16;;;9.52;66.67
40117;BME280;25829;50.228;18.936;2023-05-23T04:08:13;98237.31;;;9.58;67.15
40117;BME280;25829;50.228;18.936;2023-05-23T04:11:24;98240.94;;;9.71;67.15
40117;BME280;25829;50.228;18.936;2023-05-23T04:14:24;98239.25;;;9.83;66.72
40117;BME280;25829;50.228;18.936;2023-05-23T04:17:26;98241.28;;;9.94;67.17
40117;BME280;25829;50.228;18.936;2023-05-23T04:20:29;98241.84;;;10.03;66.71
40117;BME280;25829;50.228;18.936;2023-05-23T04:23:30;98235.91;;;10.14;66.75
40117;BME280;25829;50.228;18.936;2023-05-23T04:26:31;98237.69;;;10.20;66.62
40117;BME280;25829;50.228;18.936;2023-05-23T04:29:33;98232.63;;;10.25;66.79
40117;BME280;25829;50.228;18.936;2023-05-23T04:32:35;98229.72;;;10.33;67.31
40117;BME280;25829;50.228;18.936;2023-05-23T04:35:37;98230.69;;;10.46;67.64
40117;BME280;25829;50.228;18.936;2023-05-23T04:38:41;98230.38;;;10.61;67.13
40117;BME280;25829;50.228;18.936;2023-05-23T04:41:42;98231.50;;;10.78;66.98
40117;BME280;25829;50.228;18.936;2023-05-23T04:45:20;98228.91;;;10.96;66.67
40117;BME280;25829;50.228;18.936;2023-05-23T04:48:39;98224.94;;;11.12;66.20
40117;BME280;25829;50.228;18.936;2023-05-23T04:51:39;98218.72;;;11.25;65.76
40117;BME280;25829;50.228;18.936;2023-05-23T04:54:54;98230.56;;;11.41;65.27
40117;BME280;25829;50.228;18.936;2023-05-23T04:57:55;98213.34;;;11.57;65.15
40117;BME280;25829;50.228;18.936;2023-05-23T05:00:57;98213.63;;;11.67;64.93
40117;BME280;25829;50.228;18.936;2023-05-23T05:03:58;98215.31;;;11.80;64.38
40117;BME280;25829;50.228;18.936;2023-05-23T05:06:59;98208.63;;;11.95;64.31
40117;BME280;25829;50.228;18.936;2023-05-23T05:10:00;98207.69;;;12.08;64.09
40117;BME280;25829;50.228;18.936;2023-05-23T05:13:02;98213.00;;;12.20;63.76
40117;BME280;25829;50.228;18.936;2023-05-23T05:16:10;98206.16;;;12.31;63.60
40117;BME280;25829;50.228;18.936;2023-05-23T05:19:11;98204.38;;;12.43;63.28
40117;BME280;25829;50.228;18.936;2023-05-23T05:25:36;98196.16;;;12.75;62.77
40117;BME280;25829;50.228;18.936;2023-05-23T05:28:46;98196.75;;;12.88;62.74
40117;BME280;25829;50.228;18.936;2023-05-23T05:31:47;98196.50;;;13.02;62.76
40117;BME280;25829;50.228;18.936;2023-05-23T05:34:48;98201.81;;;13.13;61.90
40117;BME280;25829;50.228;18.936;2023-05-23T05:37:52;98193.69;;;13.27;61.71
40117;BME280;25829;50.228;18.936;2023-05-23T05:40:53;98198.59;;;13.47;61.29
40117;BME280;25829;50.228;18.936;2023-05-23T05:43:54;98202.63;;;13.61;60.78
40117;BME280;25829;50.228;18.936;2023-05-23T05:46:55;98202.00;;;13.71;60.34
40117;BME280;25829;50.228;18.936;2023-05-23T05:49:56;98207.84;;;13.84;59.94
40117;BME280;25829;50.228;18.936;2023-05-23T05:53:00;98211.28;;;13.97;59.13
40117;BME280;25829;50.228;18.936;2023-05-23T05:56:02;98193.00;;;14.12;59.02
40117;BME280;25829;50.228;18.936;2023-05-23T05:59:04;98197.38;;;14.18;58.66
40117;BME280;25829;50.228;18.936;2023-05-23T06:02:06;98196.56;;;14.18;58.50
40117;BME280;25829;50.228;18.936;2023-05-23T06:05:12;98197.38;;;14.18;58.44
40117;BME280;25829;50.228;18.936;2023-05-23T06:08:15;98193.19;;;14.34;58.40
40117;BME280;25829;50.228;18.936;2023-05-23T06:11:16;98190.56;;;14.51;58.66
40117;BME280;25829;50.228;18.936;2023-05-23T06:14:17;98192.75;;;14.71;58.05
40117;BME280;25829;50.228;18.936;2023-05-23T06:17:20;98188.97;;;14.83;57.63
40117;BME280;25829;50.228;18.936;2023-05-23T06:20:21;98187.38;;;14.99;57.68
40117;BME280;25829;50.228;18.936;2023-05-23T06:23:22;98185.41;;;15.28;57.62
40117;BME280;25829;50.228;18.936;2023-05-23T06:26:23;98180.50;;;15.59;57.02
40117;BME280;25829;50.228;18.936;2023-05-23T06:29:26;98182.16;;;15.87;56.35
40117;BME280;25829;50.228;18.936;2023-05-23T06:32:28;98172.06;;;16.11;55.74
40117;BME280;25829;50.228;18.936;2023-05-23T06:35:30;98167.72;;;16.27;55.74
40117;BME280;25829;50.228;18.936;2023-05-23T06:38:31;98172.19;;;16.48;55.74
40117;BME280;25829;50.228;18.936;2023-05-23T06:41:33;98175.31;;;16.72;55.72
40117;BME280;25829;50.228;18.936;2023-05-23T06:44:34;98166.88;;;16.86;55.04
40117;BME280;25829;50.228;18.936;2023-05-23T06:47:36;98168.78;;;16.90;54.65
40117;BME280;25829;50.228;18.936;2023-05-23T06:50:37;98160.03;;;16.95;54.30
40117;BME280;25829;50.228;18.936;2023-05-23T06:53:38;98161.13;;;16.99;54.60
40117;BME280;25829;50.228;18.936;2023-05-23T06:56:39;98160.66;;;17.07;54.47
40117;BME280;25829;50.228;18.936;2023-05-23T06:59:40;98159.13;;;17.16;54.43
40117;BME280;25829;50.228;18.936;2023-05-23T07:02:41;98154.66;;;17.27;54.12
40117;BME280;25829;50.228;18.936;2023-05-23T07:05:43;98157.59;;;17.31;53.44
40117;BME280;25829;50.228;18.936;2023-05-23T07:08:44;98148.31;;;17.38;53.87
40117;BME280;25829;50.228;18.936;2023-05-23T07:11:49;98144.38;;;17.51;54.16
40117;BME280;25829;50.228;18.936;2023-05-23T07:14:54;98147.66;;;17.74;54.09
40117;BME280;25829;50.228;18.936;2023-05-23T07:17:55;98143.16;;;17.89;54.25
40117;BME280;25829;50.228;18.936;2023-05-23T07:20:56;98148.06;;;18.08;54.10
40117;BME280;25829;50.228;18.936;2023-05-23T07:23:57;98134.47;;;18.20;53.29
40117;BME280;25829;50.228;18.936;2023-05-23T07:26:58;98142.22;;;18.36;52.30
40117;BME280;25829;50.228;18.936;2023-05-23T07:30:00;98136.88;;;18.47;51.99
40117;BME280;25829;50.228;18.936;2023-05-23T07:33:02;98139.31;;;18.63;52.22
40117;BME280;25829;50.228;18.936;2023-05-23T07:36:03;98139.81;;;18.81;52.04
40117;BME280;25829;50.228;18.936;2023-05-23T07:39:04;98136.88;;;19.03;49.89
40117;BME280;25829;50.228;18.936;2023-05-23T07:42:05;98128.56;;;19.20;50.53
40117;BME280;25829;50.228;18.936;2023-05-23T07:45:06;98129.03;;;19.32;50.38
40117;BME280;25829;50.228;18.936;2023-05-23T07:48:08;98130.88;;;19.42;50.07
40117;BME280;25829;50.228;18.936;2023-05-23T07:51:09;98125.50;;;19.52;50.16
40117;BME280;25829;50.228;18.936;2023-05-23T07:54:11;98121.19;;;19.56;49.34
40117;BME280;25829;50.228;18.936;2023-05-23T07:57:14;98118.50;;;19.66;49.80
40117;BME280;25829;50.228;18.936;2023-05-23T08:00:17;98118.16;;;19.83;49.53
40117;BME280;25829;50.228;18.936;2023-05-23T08:03:18;98108.47;;;19.92;49.14
40117;BME280;25829;50.228;18.936;2023-05-23T08:06:30;98113.22;;;20.05;49.06
40117;BME280;25829;50.228;18.936;2023-05-23T08:09:37;98116.88;;;20.15;48.74
40117;BME280;25829;50.228;18.936;2023-05-23T08:12:50;98113.31;;;20.29;48.76
40117;BME280;25829;50.228;18.936;2023-05-23T08:15:53;98112.94;;;20.41;48.21
40117;BME280;25829;50.228;18.936;2023-05-23T08:18:58;98115.56;;;20.51;48.17
40117;BME280;25829;50.228;18.936;2023-05-23T08:21:58;98112.50;;;20.63;47.59
40117;BME280;25829;50.228;18.936;2023-05-23T08:24:59;98105.41;;;20.77;47.40
40117;BME280;25829;50.228;18.936;2023-05-23T08:28:03;98109.53;;;20.94;46.94
40117;BME280;25829;50.228;18.936;2023-05-23T08:31:33;98109.06;;;21.16;47.02
40117;BME280;25829;50.228;18.936;2023-05-23T08:34:34;98110.09;;;21.44;46.53
40117;BME280;25829;50.228;18.936;2023-05-23T08:37:35;98106.19;;;21.98;46.53
40117;BME280;25829;50.228;18.936;2023-05-23T08:40:36;98108.28;;;22.72;45.92
40117;BME280;25829;50.228;18.936;2023-05-23T08:43:51;98093.28;;;23.53;43.45
40117;BME280;25829;50.228;18.936;2023-05-23T08:47:02;98097.78;;;24.08;43.47
40117;BME280;25829;50.228;18.936;2023-05-23T08:50:27;98098.88;;;24.74;41.45
40117;BME280;25829;50.228;18.936;2023-05-23T08:54:01;98096.63;;;25.47;41.80
40117;BME280;25829;50.228;18.936;2023-05-23T08:57:07;98102.91;;;26.00;39.32
40117;BME280;25829;50.228;18.936;2023-05-23T09:00:14;98099.06;;;26.62;39.85
40117;BME280;25829;50.228;18.936;2023-05-23T09:03:17;98095.75;;;27.12;39.36
40117;BME280;25829;50.228;18.936;2023-05-23T09:06:39;98096.88;;;27.70;39.46
40117;BME280;25829;50.228;18.936;2023-05-23T09:09:40;98092.25;;;28.13;38.65
40117;BME280;25829;50.228;18.936;2023-05-23T09:12:43;98101.81;;;28.52;38.47
40117;BME280;25829;50.228;18.936;2023-05-23T09:16:15;98097.47;;;28.84;34.97
40117;BME280;25829;50.228;18.936;2023-05-23T09:19:22;98088.69;;;29.12;36.98
40117;BME280;25829;50.228;18.936;2023-05-23T09:22:47;98089.34;;;29.09;35.50
40117;BME280;25829;50.228;18.936;2023-05-23T09:25:49;98090.16;;;29.21;36.95
40117;BME280;25829;50.228;18.936;2023-05-23T09:28:51;98085.72;;;29.29;36.16
40117;BME280;25829;50.228;18.936;2023-05-23T09:32:12;98083.38;;;29.40;34.35
40117;BME280;25829;50.228;18.936;2023-05-23T09:35:14;98078.63;;;29.49;36.59
40117;BME280;25829;50.228;18.936;2023-05-23T09:38:14;98088.19;;;29.71;36.71
40117;BME280;25829;50.228;18.936;2023-05-23T09:41:18;98091.78;;;29.87;36.24
40117;BME280;25829;50.228;18.936;2023-05-23T09:44:22;98086.09;;;30.05;36.63
40117;BME280;25829;50.228;18.936;2023-05-23T09:47:23;98078.53;;;30.26;36.41
40117;BME280;25829;50.228;18.936;2023-05-23T09:50:30;98083.28;;;30.29;34.25
40117;BME280;25829;50.228;18.936;2023-05-23T09:53:32;98083.06;;;29.94;34.90
40117;BME280;25829;50.228;18.936;2023-05-23T09:56:36;98084.72;;;29.34;35.50
40117;BME280;25829;50.228;18.936;2023-05-23T09:59:43;98071.81;;;28.82;36.58
40117;BME280;25829;50.228;18.936;2023-05-23T10:02:54;98069.88;;;28.37;36.96
40117;BME280;25829;50.228;18.936;2023-05-23T10:06:09;98071.94;;;27.98;36.03
40117;BME280;25829;50.228;18.936;2023-05-23T10:09:16;98061.06;;;27.56;35.61
40117;BME280;25829;50.228;18.936;2023-05-23T10:12:33;98063.25;;;27.12;35.61
40117;BME280;25829;50.228;18.936;2023-05-23T10:15:38;98058.13;;;26.72;37.53
40117;BME280;25829;50.228;18.936;2023-05-23T10:18:44;98056.28;;;26.47;37.30
40117;BME280;25829;50.228;18.936;2023-05-23T10:21:49;98046.63;;;26.20;36.43
40117;BME280;25829;50.228;18.936;2023-05-23T10:24:51;98052.22;;;25.88;37.07
40117;BME280;25829;50.228;18.936;2023-05-23T10:27:55;98049.16;;;25.64;38.17
40117;BME280;25829;50.228;18.936;2023-05-23T10:31:07;98045.19;;;25.53;37.50
40117;BME280;25829;50.228;18.936;2023-05-23T10:34:26;98034.66;;;25.34;37.20
40117;BME280;25829;50.228;18.936;2023-05-23T10:44:30;98033.41;;;24.91;38.68
40117;BME280;25829;50.228;18.936;2023-05-23T10:47:31;98033.22;;;24.88;38.55
40117;BME280;25829;50.228;18.936;2023-05-23T10:50:35;98023.50;;;24.78;38.31
40117;BME280;25829;50.228;18.936;2023-05-23T10:53:42;98028.22;;;24.64;38.52
40117;BME280;25829;50.228;18.936;2023-05-23T10:56:43;98027.34;;;24.54;38.19
40117;BME280;25829;50.228;18.936;2023-05-23T10:59:45;98026.81;;;24.44;38.08
40117;BME280;25829;50.228;18.936;2023-05-23T11:02:53;98025.06;;;24.39;38.51
40117;BME280;25829;50.228;18.936;2023-05-23T11:05:55;98029.94;;;24.37;39.19
40117;BME280;25829;50.228;18.936;2023-05-23T11:09:04;98026.00;;;24.35;38.57
40117;BME280;25829;50.228;18.936;2023-05-23T11:12:06;98015.19;;;24.35;38.17
40117;BME280;25829;50.228;18.936;2023-05-23T11:18:22;98008.72;;;24.13;38.37
40117;BME280;25829;50.228;18.936;2023-05-23T11:21:23;97999.19;;;24.07;38.53
40117;BME280;25829;50.228;18.936;2023-05-23T11:24:50;98000.16;;;24.11;39.15
40117;BME280;25829;50.228;18.936;2023-05-23T11:27:51;97998.34;;;24.06;39.19
40117;BME280;25829;50.228;18.936;2023-05-23T11:30:55;97992.00;;;24.02;39.29
40117;BME280;25829;50.228;18.936;2023-05-23T11:33:56;97985.88;;;24.11;39.96
40117;BME280;25829;50.228;18.936;2023-05-23T11:36:57;97984.16;;;24.15;39.37
40117;BME280;25829;50.228;18.936;2023-05-23T11:39:59;97979.91;;;24.22;39.44
40117;BME280;25829;50.228;18.936;2023-05-23T11:43:19;97976.28;;;24.27;39.57
40117;BME280;25829;50.228;18.936;2023-05-23T11:46:20;97982.97;;;24.29;38.95
40117;BME280;25829;50.228;18.936;2023-05-23T11:49:21;97984.53;;;24.22;38.90
40117;BME280;25829;50.228;18.936;2023-05-23T11:52:22;97990.28;;;24.06;38.52
40117;BME280;25829;50.228;18.936;2023-05-23T11:55:23;97986.53;;;23.94;38.87
40117;BME280;25829;50.228;18.936;2023-05-23T11:58:37;97985.38;;;23.86;38.51
40117;BME280;25829;50.228;18.936;2023-05-23T12:01:38;97984.31;;;23.73;38.76
40117;BME280;25829;50.228;18.936;2023-05-23T12:04:39;97991.13;;;23.71;39.10
40117;BME280;25829;50.228;18.936;2023-05-23T12:07:47;97990.00;;;23.72;39.51
40117;BME280;25829;50.228;18.936;2023-05-23T12:10:52;98004.41;;;23.67;39.79
40117;BME280;25829;50.228;18.936;2023-05-23T12:13:53;98036.66;;;23.58;40.32
40117;BME280;25829;50.228;18.936;2023-05-23T12:16:54;98045.94;;;23.25;40.27
40117;BME280;25829;50.228;18.936;2023-05-23T12:19:55;98056.69;;;22.83;40.98
40117;BME280;25829;50.228;18.936;2023-05-23T12:22:56;98057.00;;;22.49;41.73
40117;BME280;25829;50.228;18.936;2023-05-23T12:25:57;98065.75;;;22.08;44.10
40117;BME280;25829;50.228;18.936;2023-05-23T12:28:58;98077.81;;;21.49;47.81
40117;BME280;25829;50.228;18.936;2023-05-23T12:32:02;98073.03;;;20.98;49.60
40117;BME280;25829;50.228;18.936;2023-05-23T12:35:03;98077.34;;;20.36;51.33
40117;BME280;25829;50.228;18.936;2023-05-23T12:38:05;98067.78;;;19.90;53.25
40117;BME280;25829;50.228;18.936;2023-05-23T12:41:15;98082.94;;;19.55;54.84
40117;BME280;25829;50.228;18.936;2023-05-23T12:44:18;98084.69;;;19.26;55.28
40117;BME280;25829;50.228;18.936;2023-05-23T12:47:19;98069.78;;;18.99;55.89
40117;BME280;25829;50.228;18.936;2023-05-23T12:50:20;98071.13;;;18.76;56.68
40117;BME280;25829;50.228;18.936;2023-05-23T12:53:21;98066.09;;;18.54;57.48
40117;BME280;25829;50.228;18.936;2023-05-23T12:56:22;98069.56;;;18.45;57.82
40117;BME280;25829;50.228;18.936;2023-05-23T12:59:23;98065.56;;;18.27;58.40
40117;BME280;25829;50.228;18.936;2023-05-23T13:02:23;98064.78;;;18.16;58.90
40117;BME280;25829;50.228;18.936;2023-05-23T13:05:25;98057.31;;;18.08;59.52
40117;BME280;25829;50.228;18.936;2023-05-23T13:08:26;98046.09;;;18.06;60.35
40117;BME280;25829;50.228;18.936;2023-05-23T13:11:32;98046.63;;;18.03;59.93
40117;BME280;25829;50.228;18.936;2023-05-23T13:14:34;98050.84;;;17.88;60.24
40117;BME280;25829;50.228;18.936;2023-05-23T13:17:35;98049.50;;;17.86;60.35
40117;BME280;25829;50.228;18.936;2023-05-23T13:20:36;98049.25;;;17.92;60.45
40117;BME280;25829;50.228;18.936;2023-05-23T13:23:36;98041.78;;;18.00;60.35
40117;BME280;25829;50.228;18.936;2023-05-23T13:26:38;98037.78;;;18.07;60.45
40117;BME280;25829;50.228;18.936;2023-05-23T13:29:39;98050.38;;;18.12;60.66
40117;BME280;25829;50.228;18.936;2023-05-23T13:32:46;98041.81;;;18.15;61.20
40117;BME280;25829;50.228;18.936;2023-05-23T13:35:50;98033.53;;;18.06;61.23
40117;BME280;25829;50.228;18.936;2023-05-23T13:38:51;98031.66;;;18.07;60.79
40117;BME280;25829;50.228;18.936;2023-05-23T13:41:52;98029.25;;;18.10;60.62
40117;BME280;25829;50.228;18.936;2023-05-23T13:44:53;98035.41;;;18.21;60.66
40117;BME280;25829;50.228;18.936;2023-05-23T13:47:54;98040.47;;;18.33;60.63
40117;BME280;25829;50.228;18.936;2023-05-23T13:50:55;98034.59;;;18.46;60.91
40117;BME280;25829;50.228;18.936;2023-05-23T13:53:55;98035.34;;;18.62;61.06
40117;BME280;25829;50.228;18.936;2023-05-23T13:56:56;98038.00;;;18.72;61.28
40117;BME280;25829;50.228;18.936;2023-05-23T13:59:57;98039.59;;;18.78;60.61
40117;BME280;25829;50.228;18.936;2023-05-23T14:02:58;98036.69;;;18.85;61.22
40117;BME280;25829;50.228;18.936;2023-05-23T14:05:58;98044.94;;;18.94;61.14
40117;BME280;25829;50.228;18.936;2023-05-23T14:09:31;98044.38;;;18.97;61.60
40117;BME280;25829;50.228;18.936;2023-05-23T14:12:39;98034.81;;;18.91;59.96
40117;BME280;25829;50.228;18.936;2023-05-23T14:15:41;98038.03;;;18.88;59.85
40117;BME280;25829;50.228;18.936;2023-05-23T14:18:42;98038.28;;;18.91;60.21
40117;BME280;25829;50.228;18.936;2023-05-23T14:21:44;98036.66;;;18.95;60.18
40117;BME280;25829;50.228;18.936;2023-05-23T14:24:45;98040.09;;;19.01;60.79
40117;BME280;25829;50.228;18.936;2023-05-23T14:27:46;98036.63;;;19.05;60.81
40117;BME280;25829;50.228;18.936;2023-05-23T14:30:46;98038.47;;;19.10;60.47
40117;BME280;25829;50.228;18.936;2023-05-23T14:33:47;98055.88;;;19.02;62.06
40117;BME280;25829;50.228;18.936;2023-05-23T14:36:49;98055.38;;;18.85;61.14
40117;BME280;25829;50.228;18.936;2023-05-23T14:39:56;98052.44;;;18.76;60.86
40117;BME280;25829;50.228;18.936;2023-05-23T14:42:56;98053.50;;;18.80;61.15
40117;BME280;25829;50.228;18.936;2023-05-23T14:45:58;98058.84;;;18.91;61.37
40117;BME280;25829;50.228;18.936;2023-05-23T14:48:58;98052.41;;;18.97;61.73
40117;BME280;25829;50.228;18.936;2023-05-23T14:51:59;98054.53;;;19.00;61.51
40117;BME280;25829;50.228;18.936;2023-05-23T14:55:00;98048.41;;;18.99;60.41
40117;BME280;25829;50.228;18.936;2023-05-23T14:58:01;98049.72;;;19.02;60.41
40117;BME280;25829;50.228;18.936;2023-05-23T15:01:09;98041.97;;;19.00;60.39
40117;BME280;25829;50.228;18.936;2023-05-23T15:04:09;98036.88;;;19.04;59.81
40117;BME280;25829;50.228;18.936;2023-05-23T15:07:10;98037.66;;;19.09;59.97
40117;BME280;25829;50.228;18.936;2023-05-23T15:10:13;98042.19;;;19.14;60.61
40117;BME280;25829;50.228;18.936;2023-05-23T15:13:13;98044.84;;;19.19;61.09
40117;BME280;25829;50.228;18.936;2023-05-23T15:16:14;98046.69;;;19.24;61.61
40117;BME280;25829;50.228;18.936;2023-05-23T15:19:16;98048.28;;;19.25;62.14
40117;BME280;25829;50.228;18.936;2023-05-23T15:22:16;98047.50;;;19.24;62.18
40117;BME280;25829;50.228;18.936;2023-05-23T15:25:17;98056.31;;;19.25;61.80
40117;BME280;25829;50.228;18.936;2023-05-23T15:28:18;98053.38;;;19.26;61.99
40117;BME280;25829;50.228;18.936;2023-05-23T15:31:28;98056.03;;;19.31;62.16
40117;BME280;25829;50.228;18.936;2023-05-23T15:34:28;98053.09;;;19.33;61.21
40117;BME280;25829;50.228;18.936;2023-05-23T15:37:29;98057.59;;;19.38;61.11
40117;BME280;25829;50.228;18.936;2023-05-23T15:40:30;98051.16;;;19.44;61.45
40117;BME280;25829;50.228;18.936;2023-05-23T15:43:34;98059.16;;;19.49;61.47
40117;BME280;25829;50.228;18.936;2023-05-23T15:46:35;98060.78;;;19.50;61.10
40117;BME280;25829;50.228;18.936;2023-05-23T15:49:36;98063.94;;;19.52;61.39
40117;BME280;25829;50.228;18.936;2023-05-23T15:52:48;98063.94;;;19.52;60.86
40117;BME280;25829;50.228;18.936;2023-05-23T15:55:52;98071.44;;;19.55;60.36
40117;BME280;25829;50.228;18.936;2023-05-23T15:58:53;98060.19;;;19.53;60.13
40117;BME280;25829;50.228;18.936;2023-05-23T16:01:53;98066.38;;;19.48;60.23
40117;BME280;25829;50.228;18.936;2023-05-23T16:04:54;98058.94;;;19.40;60.48
40117;BME280;25829;50.228;18.936;2023-05-23T16:07:57;98055.22;;;19.36;60.62
40117;BME280;25829;50.228;18.936;2023-05-23T16:11:00;98063.25;;;19.36;61.04
40117;BME280;25829;50.228;18.936;2023-05-23T16:14:01;98055.47;;;19.34;61.11
40117;BME280;25829;50.228;18.936;2023-05-23T16:17:02;98050.66;;;19.31;61.03
40117;BME280;25829;50.228;18.936;2023-05-23T16:20:07;98055.50;;;19.29;61.12
40117;BME280;25829;50.228;18.936;2023-05-23T16:23:08;98058.19;;;19.29;61.37
40117;BME280;25829;50.228;18.936;2023-05-23T16:26:09;98062.50;;;19.25;61.29
40117;BME280;25829;50.228;18.936;2023-05-23T16:29:10;98059.28;;;19.23;61.35